Time;durP1;ratioP1;P1;durP2;ratioP2;P2;SDS_P1;SDS_P2;PMS_P1;PMS_P2;Temp;Humidity;BMP_temperature;BMP_pressure;BME280_temperature;BME280_humidity;BME280_pressure;Samples;Min_cycle;Max_cycle;Signal;HPM_P1;HPM_P2
2023/04/18 00:00:24;;;;;;;12.95;8.73;;;7.50;99.90;;;-144.05;56.19;56942.28;5038494;28;20029;-81
2023/04/18 00:02:52;;;;;;;13.02;7.72;;;7.50;99.90;;;-144.05;56.32;56925.28;5037194;28;20037;-80
2023/04/18 00:05:20;;;;;;;14.00;8.60;;;7.60;99.90;;;-144.05;56.86;56931.66;5056322;28;20029;-79
2023/04/18 00:07:46;;;;;;;12.40;8.20;;;7.60;99.90;;;-144.05;56.78;56938.03;5055203;28;20515;-79
2023/04/18 00:10:12;;;;;;;15.05;8.65;;;7.50;99.90;;;-144.05;57.82;56946.53;5054952;28;20049;-80
2023/04/18 00:12:39;;;;;;;13.73;9.18;;;7.60;99.90;;;-144.05;57.96;56918.94;5054503;28;20036;-79
2023/04/18 00:15:07;;;;;;;12.52;8.77;;;7.50;99.90;;;-144.05;57.73;56955.03;5036693;28;20021;-79
2023/04/18 00:17:37;;;;;;;13.88;8.88;;;7.40;99.90;;;-144.05;57.71;56950.78;5055722;28;20025;-81
2023/04/18 00:20:09;;;;;;;15.90;8.82;;;7.30;99.90;;;-144.05;59.02;56923.19;5055439;28;20063;-79
2023/04/18 00:22:41;;;;;;;19.45;9.65;;;7.30;99.90;;;-144.05;59.54;56955.03;5054515;28;20047;-81
2023/04/18 00:25:10;;;;;;;14.43;9.13;;;7.20;99.90;;;-144.05;59.82;56938.03;5038416;28;20430;-81
2023/04/18 00:27:38;;;;;;;12.82;8.10;;;7.20;99.90;;;-144.05;60.76;56938.03;5054743;28;20056;-80
2023/04/18 00:30:06;;;;;;;16.52;9.52;;;7.20;99.90;;;-144.05;60.58;56948.66;5037298;28;20029;-81
2023/04/18 00:32:32;;;;;;;13.70;8.93;;;7.10;99.90;;;-144.05;61.20;56921.06;5037827;28;20049;-82
2023/04/18 00:34:58;;;;;;;15.43;9.43;;;7.20;99.90;;;-144.05;60.82;56944.41;5054746;28;20025;-82
2023/04/18 00:37:24;;;;;;;14.00;9.70;;;7.10;99.90;;;-144.05;61.32;56935.91;5037472;28;20036;-80
2023/04/18 00:39:52;;;;;;;15.52;8.82;;;7.10;99.90;;;-144.05;61.57;56946.53;5054688;28;20492;-79
2023/04/18 00:42:20;;;;;;;16.63;9.05;;;7.10;99.90;;;-144.05;61.18;56957.16;5036683;28;20033;-81
2023/04/18 00:44:48;;;;;;;12.93;8.77;;;7.10;99.90;;;-144.05;61.23;56916.81;5055138;28;20557;-80
2023/04/18 00:47:16;;;;;;;16.27;8.38;;;7.10;99.90;;;-144.05;61.74;56946.53;5054926;28;20036;-80
2023/04/18 00:49:47;;;;;;;14.80;7.85;;;7.10;99.90;;;-144.05;62.04;56935.91;5037158;28;20117;-81
2023/04/18 00:52:15;;;;;;;13.63;7.88;;;7.00;99.90;;;-144.05;62.54;56940.16;5054809;28;20029;-79
2023/04/18 00:54:43;;;;;;;12.30;6.90;;;7.10;99.90;;;-144.05;61.60;56959.28;5055625;28;20485;-78
2023/04/18 00:57:11;;;;;;;10.35;7.45;;;7.10;99.90;;;-144.05;61.48;56955.03;5037356;28;20405;-79
2023/04/18 00:59:37;;;;;;;11.02;6.60;;;7.10;99.90;;;-144.05;61.03;56916.81;5056987;28;20059;-81
2023/04/18 01:02:04;;;;;;;11.45;6.90;;;7.10;99.90;;;-144.05;60.92;56921.06;5054653;28;20025;-77
2023/04/18 01:04:33;;;;;;;14.65;8.40;;;7.00;99.90;;;-144.05;61.26;56948.66;5055373;28;20107;-78
2023/04/18 01:07:02;;;;;;;9.07;6.47;;;7.00;99.90;;;-144.05;61.51;56940.16;5037040;28;20481;-79
2023/04/18 01:09:29;;;;;;;10.52;6.57;;;6.90;99.90;;;-144.05;61.05;56923.19;5053149;28;20032;-79
2023/04/18 01:11:55;;;;;;;8.95;6.45;;;6.90;99.90;;;-144.05;61.11;56940.16;5037178;28;20028;-81
2023/04/18 01:14:21;;;;;;;10.80;7.18;;;6.90;99.90;;;-144.05;61.31;56955.03;5054901;28;20033;-82
2023/04/18 01:16:47;;;;;;;14.55;7.38;;;6.90;99.90;;;-144.05;61.38;56959.28;5054902;28;20078;-79
2023/04/18 01:19:16;;;;;;;9.73;6.25;;;6.90;99.90;;;-144.05;61.46;56948.66;5038583;28;20025;-81
2023/04/18 01:21:42;;;;;;;10.38;6.80;;;6.80;99.90;;;-144.05;61.82;56944.41;5035944;28;20045;-80
2023/04/18 01:24:14;;;;;;;12.05;7.13;;;6.80;99.90;;;-144.05;61.77;56965.66;5053076;28;20407;-79
2023/04/18 01:26:43;;;;;;;10.82;6.25;;;6.70;99.90;;;-144.05;61.97;56942.28;5054743;28;20029;-80
2023/04/18 01:29:10;;;;;;;10.80;6.97;;;6.70;99.90;;;-144.05;61.94;56938.03;5055435;28;20066;-80
2023/04/18 01:31:38;;;;;;;8.82;6.38;;;6.70;99.90;;;-144.05;61.44;56931.66;5055987;28;20040;-82
2023/04/18 01:34:06;;;;;;;10.80;6.82;;;6.70;99.90;;;-144.05;61.21;56948.66;5039526;28;20051;-82
2023/04/18 01:36:34;;;;;;;11.40;7.15;;;6.70;99.90;;;-144.05;60.94;56955.03;5061425;28;20024;-79
2023/04/18 01:39:00;;;;;;;9.52;6.50;;;6.70;99.90;;;-144.05;60.91;56942.28;5036712;28;20040;-81
2023/04/18 01:41:28;;;;;;;8.95;6.35;;;6.70;99.90;;;-144.05;61.05;56946.53;5036787;28;20378;-80
2023/04/18 01:43:54;;;;;;;10.25;6.82;;;6.80;99.90;;;-144.05;61.03;56940.16;5056216;28;20028;-81
2023/04/18 01:46:20;;;;;;;10.05;6.85;;;6.70;99.90;;;-144.05;61.09;56946.53;5038494;28;20538;-80
2023/04/18 01:48:46;;;;;;;10.23;6.70;;;6.80;99.90;;;-144.05;60.78;56929.53;5059902;28;20063;-81
2023/04/18 01:51:12;;;;;;;9.73;6.28;;;6.80;99.90;;;-144.05;61.13;56946.53;5040689;28;20433;-82
2023/04/18 01:53:37;;;;;;;9.43;6.60;;;6.70;99.90;;;-144.05;60.45;56948.66;5059007;28;20037;-82
2023/04/18 01:56:04;;;;;;;10.13;6.35;;;6.80;99.90;;;-144.05;60.49;56944.41;5056038;28;20433;-79
2023/04/18 01:58:29;;;;;;;10.93;6.50;;;6.70;99.90;;;-144.05;60.45;56959.28;5056960;28;20047;-80
2023/04/18 02:00:58;;;;;;;8.13;5.82;;;6.80;99.90;;;-144.05;60.79;56927.41;5057237;28;20021;-81
2023/04/18 02:03:24;;;;;;;9.70;6.57;;;6.70;99.90;;;-144.05;60.65;56933.78;5057171;28;20418;-79
2023/04/18 02:05:50;;;;;;;9.45;6.65;;;6.70;99.90;;;-144.05;60.88;56923.19;5057323;28;20135;-80
2023/04/18 02:08:16;;;;;;;12.23;6.45;;;6.70;99.90;;;-144.05;61.00;56912.56;5057072;28;20029;-81
2023/04/18 02:10:43;;;;;;;9.15;5.75;;;6.70;99.90;;;-144.05;60.90;56929.53;5057740;28;20035;-80
2023/04/18 02:13:09;;;;;;;11.20;6.43;;;6.70;99.90;;;-144.05;60.91;56944.41;5062620;28;20063;-80
2023/04/18 02:15:36;;;;;;;10.23;6.00;;;6.70;99.90;;;-144.05;60.84;56946.53;5062161;28;20028;-80
2023/04/18 02:18:02;;;;;;;8.07;6.13;;;6.70;99.90;;;-144.05;60.80;56946.53;5044588;28;20040;-80
2023/04/18 02:20:32;;;;;;;8.98;5.85;;;6.70;99.90;;;-144.05;61.13;56927.41;5057061;28;20507;-80
2023/04/18 02:23:00;;;;;;;8.73;6.30;;;6.70;99.90;;;-144.05;60.87;56944.41;5055285;28;20049;-81
2023/04/18 02:25:27;;;;;;;7.35;5.68;;;6.60;99.90;;;-144.05;61.40;56927.41;5057140;28;20542;-78
2023/04/18 02:27:54;;;;;;;9.38;5.93;;;6.60;99.90;;;-144.05;61.34;56944.41;5038410;28;20028;-82
2023/04/18 02:30:20;;;;;;;7.78;5.47;;;6.70;99.90;;;-144.05;60.69;56918.94;5056577;28;20369;-81
2023/04/18 02:32:50;;;;;;;7.72;5.35;;;6.60;99.90;;;-144.05;61.23;56933.78;5058142;28;20051;-78
2023/04/18 02:35:18;;;;;;;7.97;5.72;;;6.60;99.90;;;-144.05;61.04;56950.78;5047150;28;20025;-78
2023/04/18 02:37:44;;;;;;;10.45;6.53;;;6.70;99.90;;;-144.05;60.63;56938.03;5045183;28;20036;-77
2023/04/18 02:40:11;;;;;;;8.27;5.85;;;6.70;99.90;;;-144.05;60.68;56935.91;5062942;28;20029;-79
2023/04/18 02:42:37;;;;;;;9.25;5.93;;;6.70;99.90;;;-144.05;60.66;56933.78;5061717;28;20044;-82
2023/04/18 02:45:04;;;;;;;9.13;5.97;;;6.70;99.90;;;-144.05;60.40;56933.78;5036907;28;20022;-81
2023/04/18 02:47:30;;;;;;;9.45;6.22;;;6.70;99.90;;;-144.05;60.45;56952.91;5037285;28;20032;-80
2023/04/18 02:49:56;;;;;;;8.27;5.68;;;6.70;99.90;;;-144.05;61.18;56921.06;5053609;28;20092;-79
2023/04/18 02:52:23;;;;;;;9.55;5.75;;;6.70;99.90;;;-144.05;60.82;56925.28;5054799;28;20037;-80
2023/04/18 02:54:49;;;;;;;9.35;5.85;;;6.60;99.90;;;-144.05;60.87;56925.28;5054772;28;20029;-79
2023/04/18 02:57:15;;;;;;;7.80;5.65;;;6.60;99.90;;;-144.05;60.68;56942.28;5053360;28;20033;-81
2023/04/18 02:59:41;;;;;;;8.05;6.03;;;6.60;99.90;;;-144.05;60.32;56948.66;5053958;28;20116;-81
2023/04/18 03:02:07;;;;;;;8.85;6.20;;;6.50;99.90;;;-144.05;61.27;56933.78;5055291;28;20468;-82
2023/04/18 03:04:33;;;;;;;10.93;6.25;;;6.50;99.90;;;-144.05;61.43;56938.03;5054735;28;20114;-80
2023/04/18 03:06:59;;;;;;;10.15;6.00;;;6.50;99.90;;;-144.05;61.73;56961.41;5054439;28;20021;-79
2023/04/18 03:09:25;;;;;;;11.35;5.95;;;6.40;99.90;;;-144.05;61.78;56944.41;5037000;28;20511;-81
2023/04/18 03:11:51;;;;;;;8.60;6.25;;;6.40;99.90;;;-144.05;61.91;56946.53;5038001;28;20040;-81
2023/04/18 03:14:17;;;;;;;11.52;7.15;;;6.40;99.90;;;-144.05;62.11;56942.28;5055249;28;20367;-79
2023/04/18 03:16:43;;;;;;;9.20;6.95;;;6.30;99.90;;;-144.05;62.41;56931.66;5054650;28;20135;-78
2023/04/18 03:19:09;;;;;;;11.82;6.40;;;6.30;99.90;;;-144.05;62.13;56938.03;5052860;28;20036;-80
2023/04/18 03:21:35;;;;;;;9.60;6.60;;;6.30;99.90;;;-144.05;62.87;56965.66;5054459;28;20068;-78
2023/04/18 03:24:01;;;;;;;10.30;6.32;;;6.40;99.90;;;-144.05;62.55;56931.66;5036539;28;20083;-82
2023/04/18 03:26:28;;;;;;;11.23;6.60;;;6.40;99.90;;;-144.05;62.81;56929.53;5038041;28;20416;-82
2023/04/18 03:28:54;;;;;;;10.50;7.07;;;6.40;99.90;;;-144.05;62.33;56976.28;5038266;28;20435;-80
2023/04/18 03:31:20;;;;;;;14.02;8.18;;;6.40;99.90;;;-144.05;62.82;56946.53;5037852;28;20029;-81
2023/04/18 03:33:46;;;;;;;11.30;6.85;;;6.40;99.90;;;-144.05;62.49;56948.66;5037749;28;20051;-80
2023/04/18 03:36:16;;;;;;;12.98;7.82;;;6.50;99.90;;;-144.05;62.76;56944.41;5037732;28;20400;-81
2023/04/18 03:38:43;;;;;;;11.07;7.70;;;6.50;99.90;;;-144.05;63.17;56914.69;5056034;28;20029;-81
2023/04/18 03:41:09;;;;;;;9.20;7.25;;;6.50;99.90;;;-144.05;62.54;56933.78;5038114;28;20025;-79
2023/04/18 03:43:35;;;;;;;10.48;6.57;;;6.50;99.90;;;-144.05;62.65;56952.91;5037992;28;20121;-79
2023/04/18 03:46:01;;;;;;;11.82;8.05;;;6.50;99.90;;;-144.05;62.69;56929.53;5055571;28;20060;-80
2023/04/18 03:48:34;;;;;;;9.77;7.53;;;6.60;99.90;;;-144.05;62.64;56950.78;5037407;28;20029;-80
2023/04/18 03:51:00;;;;;;;11.00;7.47;;;6.60;99.90;;;-144.05;62.28;56938.03;5039460;28;20155;-79
2023/04/18 03:53:26;;;;;;;10.73;7.55;;;6.60;99.90;;;-144.05;63.02;56916.81;5056818;28;20492;-79
2023/04/18 03:55:52;;;;;;;10.40;7.97;;;6.60;99.90;;;-144.05;62.64;56935.91;5039662;28;20064;-80
2023/04/18 03:58:22;;;;;;;10.38;7.35;;;6.60;99.90;;;-144.05;62.88;56935.91;5037734;28;20064;-81
2023/04/18 04:00:50;;;;;;;10.05;7.90;;;6.60;99.90;;;-144.05;62.50;56929.53;5055728;28;20036;-81
2023/04/18 04:03:16;;;;;;;11.80;8.25;;;6.70;99.90;;;-144.05;62.81;56938.03;5057364;28;20036;-78
2023/04/18 04:05:42;;;;;;;11.70;7.90;;;6.70;99.90;;;-144.05;62.84;56929.53;5039817;28;20365;-79
2023/04/18 04:08:08;;;;;;;10.68;7.93;;;6.70;99.90;;;-144.05;62.39;56925.28;5041072;28;20035;-79
2023/04/18 04:10:34;;;;;;;10.98;8.02;;;6.70;99.90;;;-144.05;63.30;56967.78;5041082;28;20043;-80
2023/04/18 04:13:01;;;;;;;11.30;7.90;;;6.70;99.90;;;-144.05;62.75;56940.16;5062882;28;20048;-81
2023/04/18 04:15:26;;;;;;;11.27;8.35;;;6.80;99.90;;;-144.05;62.89;56952.91;5053369;28;20040;-82
2023/04/18 04:17:52;;;;;;;15.57;8.98;;;6.90;99.90;;;-144.05;62.21;56931.66;5055131;28;20029;-79
2023/04/18 04:20:22;;;;;;;13.35;8.93;;;6.80;99.90;;;-144.05;62.49;56931.66;5055262;28;20120;-78
2023/04/18 04:22:51;;;;;;;11.07;8.65;;;6.90;99.90;;;-144.05;62.67;56961.41;5053486;28;20102;-78
2023/04/18 04:25:18;;;;;;;11.32;8.75;;;6.90;99.90;;;-144.05;63.02;56938.03;5038061;28;20045;-79
2023/04/18 04:27:44;;;;;;;14.57;10.15;;;6.90;99.90;;;-144.05;62.83;56938.03;5036447;28;20112;-81
2023/04/18 04:30:11;;;;;;;13.15;9.43;;;6.80;99.90;;;-144.05;63.08;56914.69;5052701;28;20408;-80
2023/04/18 04:32:37;;;;;;;12.93;9.52;;;6.90;99.90;;;-144.05;62.23;56925.28;5040707;28;20101;-81
2023/04/18 04:35:04;;;;;;;13.40;9.07;;;6.80;99.90;;;-144.05;62.92;56912.56;5041161;28;20143;-78
2023/04/18 04:37:32;;;;;;;13.57;9.60;;;6.90;99.90;;;-144.05;62.31;56929.53;5057415;28;20131;-79
2023/04/18 04:39:59;;;;;;;13.45;9.65;;;6.90;99.90;;;-144.05;62.49;56938.03;5036227;28;20036;-78
2023/04/18 04:42:27;;;;;;;13.98;9.88;;;6.90;99.90;;;-144.05;62.77;56933.78;5036021;28;20033;-80
2023/04/18 04:44:53;;;;;;;17.42;10.25;;;6.90;99.90;;;-144.05;62.51;56938.03;5053978;28;20032;-80
2023/04/18 04:47:19;;;;;;;14.95;9.90;;;6.90;99.90;;;-144.05;63.13;56938.03;5036285;28;20021;-79
2023/04/18 04:49:45;;;;;;;13.68;9.80;;;7.00;99.90;;;-144.05;62.34;56938.03;5036932;28;20044;-80
2023/04/18 04:52:11;;;;;;;13.68;10.55;;;7.00;99.90;;;-144.05;62.87;56944.41;5036530;28;20488;-81
2023/04/18 04:54:36;;;;;;;17.05;10.55;;;7.00;99.90;;;-144.05;63.13;56935.91;5035722;28;20396;-80
2023/04/18 04:57:03;;;;;;;16.45;10.98;;;7.00;99.90;;;-144.05;63.20;56925.28;5035998;28;20037;-79
2023/04/18 04:59:29;;;;;;;14.20;9.90;;;7.00;99.90;;;-144.05;62.50;56918.94;5038621;28;20120;-78
2023/04/18 05:01:56;;;;;;;16.60;11.43;;;7.00;99.90;;;-144.05;62.65;56921.06;5054893;28;20210;-77
2023/04/18 05:04:23;;;;;;;13.68;10.23;;;7.00;99.90;;;-144.05;62.92;56963.53;5035936;28;20028;-80
2023/04/18 05:06:49;;;;;;;14.65;10.40;;;7.00;99.90;;;-144.05;63.65;56952.91;5095083;22;20045;-76
2023/04/18 05:09:15;;;;;;;16.52;10.75;;;7.00;99.90;;;-144.05;63.42;56938.03;5073936;28;20140;-77
2023/04/18 05:11:41;;;;;;;14.95;10.02;;;7.00;99.90;;;-144.05;63.11;56944.41;5073203;28;20063;-78
2023/04/18 05:14:07;;;;;;;18.95;10.68;;;7.00;99.90;;;-144.05;63.39;56946.53;5075029;28;20040;-77
2023/04/18 05:16:32;;;;;;;15.40;10.30;;;6.90;99.90;;;-144.05;63.72;56929.53;5090262;28;20032;-76
2023/04/18 05:18:58;;;;;;;13.20;10.27;;;7.00;99.90;;;-144.05;63.69;56929.53;5076769;28;20038;-77
2023/04/18 05:21:26;;;;;;;14.13;9.90;;;6.90;99.90;;;-144.05;62.93;56921.06;5094362;28;20032;-79
2023/04/18 05:23:52;;;;;;;14.10;9.75;;;7.00;99.90;;;-144.05;63.27;56940.16;5095390;28;20028;-79
2023/04/18 05:26:18;;;;;;;13.57;9.55;;;6.90;99.90;;;-144.05;63.38;56942.28;5095492;28;20028;-78
2023/04/18 05:28:43;;;;;;;17.63;10.18;;;6.90;99.90;;;-144.05;63.69;56946.53;5095202;28;20031;-77
2023/04/18 05:31:09;;;;;;;15.23;8.93;;;6.90;99.90;;;-144.05;63.19;56940.16;5095121;28;20043;-80
2023/04/18 05:33:35;;;;;;;14.05;9.45;;;7.00;99.90;;;-144.05;63.57;56910.44;5093011;28;20078;-78
2023/04/18 05:36:02;;;;;;;15.15;9.50;;;7.00;99.90;;;-144.05;63.40;56946.53;5094611;28;20106;-76
2023/04/18 05:38:28;;;;;;;13.02;8.77;;;7.10;99.90;;;-144.05;63.58;56927.41;5076217;28;20034;-78
2023/04/18 05:40:54;;;;;;;13.52;9.65;;;7.10;99.90;;;-144.05;63.02;56929.53;5093431;28;20028;-77
2023/04/18 05:43:21;;;;;;;14.00;9.10;;;7.20;99.90;;;-144.05;62.26;56944.41;5093996;28;20372;-75
2023/04/18 05:45:47;;;;;;;12.85;8.88;;;7.30;99.90;;;-144.05;62.98;56897.69;5094188;28;20020;-77
2023/04/18 05:48:13;;;;;;;12.80;8.85;;;7.30;99.90;;;-144.05;61.96;56929.53;5094885;28;20060;-77
2023/04/18 05:50:40;;;;;;;12.60;8.90;;;7.40;99.90;;;-144.05;61.96;56925.28;5076353;28;20476;-77
2023/04/18 05:53:05;;;;;;;12.60;8.75;;;7.40;99.90;;;-144.05;61.87;56925.28;5075333;28;20096;-77
2023/04/18 05:55:33;;;;;;;13.23;9.10;;;7.50;99.90;;;-144.05;62.40;56957.16;5093853;28;20059;-77
2023/04/18 05:57:59;;;;;;;15.40;9.10;;;7.50;99.90;;;-144.05;62.73;56912.56;5095567;28;20024;-79
2023/04/18 06:00:26;;;;;;;13.95;8.77;;;7.50;99.90;;;-144.05;61.98;56938.03;5093659;28;20024;-78
2023/04/18 06:02:51;;;;;;;12.52;9.38;;;7.60;99.90;;;-144.05;62.52;56938.03;5094024;28;20039;-77
2023/04/18 06:05:19;;;;;;;13.45;9.07;;;7.60;99.90;;;-144.05;62.30;56918.94;5094072;28;20028;-79
2023/04/18 06:07:46;;;;;;;14.65;9.82;;;7.60;99.90;;;-144.05;62.41;56914.69;5094337;28;20024;-77
2023/04/18 06:10:12;;;;;;;14.82;9.88;;;7.60;99.90;;;-144.05;62.20;56946.53;5094039;28;20028;-78
2023/04/18 06:12:39;;;;;;;14.40;10.43;;;7.60;99.90;;;-144.05;61.99;56933.78;5075120;28;20081;-79
2023/04/18 06:15:06;;;;;;;13.05;9.65;;;7.60;99.90;;;-144.05;62.97;56925.28;5094208;28;20036;-78
2023/04/18 06:17:33;;;;;;;13.10;9.48;;;7.60;99.90;;;-144.05;63.78;56938.03;5093660;28;20088;-78
2023/04/18 06:20:00;;;;;;;13.50;10.02;;;7.50;99.90;;;-144.05;63.72;56931.66;5095025;28;20094;-79
2023/04/18 06:22:25;;;;;;;16.67;9.80;;;7.50;99.90;;;-144.05;63.09;56929.53;5076186;28;20032;-77
2023/04/18 06:24:54;;;;;;;17.35;11.10;;;7.60;99.90;;;-144.05;64.01;56935.91;5093397;28;20114;-76
2023/04/18 06:27:19;;;;;;;16.42;9.55;;;7.60;99.90;;;-144.05;64.23;56940.16;5075048;28;20505;-79
2023/04/18 06:29:45;;;;;;;16.25;10.40;;;7.60;99.90;;;-144.05;63.45;56933.78;5093863;28;20107;-77
2023/04/18 06:32:11;;;;;;;18.48;11.80;;;7.60;99.90;;;-144.05;63.75;56933.78;5093624;28;20051;-76
2023/04/18 06:34:37;;;;;;;17.25;11.00;;;7.70;99.90;;;-144.05;63.46;56914.69;5095547;28;20114;-79
2023/04/18 06:37:03;;;;;;;17.38;11.00;;;7.70;99.90;;;-144.05;63.85;56927.41;5078060;28;20078;-76
2023/04/18 06:39:29;;;;;;;17.42;11.20;;;7.70;99.90;;;-144.05;64.07;56948.66;5096796;28;20028;-77
2023/04/18 06:41:56;;;;;;;15.55;10.48;;;7.70;99.90;;;-144.05;63.41;56893.44;5096031;28;20085;-78
2023/04/18 06:44:22;;;;;;;16.60;11.50;;;7.80;99.90;;;-144.05;63.55;56927.41;5096339;28;20032;-78
2023/04/18 06:46:48;;;;;;;19.45;12.50;;;7.80;99.90;;;-144.05;62.74;56933.78;5078614;28;20387;-78
2023/04/18 06:49:14;;;;;;;17.10;11.32;;;7.80;99.90;;;-144.05;63.08;56925.28;5095754;28;20028;-77
2023/04/18 06:51:40;;;;;;;18.88;11.30;;;7.90;99.90;;;-144.05;63.02;56938.03;5095181;28;20032;-78
2023/04/18 06:54:06;;;;;;;17.20;11.32;;;7.90;99.90;;;-144.05;62.98;56935.91;5096355;28;20487;-77
2023/04/18 06:56:32;;;;;;;18.98;12.40;;;7.90;99.90;;;-144.05;62.34;56904.06;5095938;28;20101;-78
2023/04/18 06:58:58;;;;;;;16.88;12.40;;;8.00;99.90;;;-144.05;62.22;56914.69;5094966;28;20536;-77
2023/04/18 07:01:24;;;;;;;18.67;11.50;;;8.00;99.90;;;-144.05;63.62;56921.06;5096255;28;20111;-78
2023/04/18 07:03:50;;;;;;;21.75;13.23;;;8.00;99.90;;;-144.05;62.86;56935.91;5097117;28;20103;-78
2023/04/18 07:06:15;;;;;;;16.40;11.88;;;8.00;99.90;;;-144.05;63.53;56931.66;5096935;28;20043;-78
2023/04/18 07:08:41;;;;;;;19.02;11.43;;;8.00;99.90;;;-144.05;63.50;56923.19;5097208;28;20050;-76
2023/04/18 07:11:07;;;;;;;18.10;12.50;;;7.90;99.90;;;-144.05;63.08;56916.81;5096454;28;20028;-78
2023/04/18 07:13:33;;;;;;;19.35;13.10;;;7.90;99.90;;;-144.05;62.42;56899.81;5096964;28;20032;-78
2023/04/18 07:16:00;;;;;;;20.27;13.32;;;8.00;99.90;;;-144.05;62.09;56908.31;5096958;28;20498;-77
2023/04/18 07:18:25;;;;;;;21.45;13.75;;;8.10;99.90;;;-144.05;62.44;56921.06;5096347;28;20024;-78
2023/04/18 07:20:51;;;;;;;21.10;13.45;;;8.00;99.90;;;-144.05;63.12;56955.03;5096010;28;20089;-78
2023/04/18 07:23:17;;;;;;;20.58;14.05;;;8.00;99.90;;;-144.05;64.43;56918.94;5096043;28;20043;-79
2023/04/18 07:25:44;;;;;;;23.02;13.80;;;7.90;99.90;;;-144.05;63.82;56925.28;5095892;28;20028;-78
2023/04/18 07:28:09;;;;;;;25.05;14.70;;;7.90;99.90;;;-144.05;63.91;56955.03;5094075;28;20441;-78
2023/04/18 07:30:35;;;;;;;22.25;14.40;;;7.90;99.90;;;-144.05;64.09;56910.44;5095779;28;20085;-78
2023/04/18 07:33:01;;;;;;;21.20;13.68;;;8.00;99.90;;;-144.05;63.21;56929.53;5096456;28;20032;-78
2023/04/18 07:35:27;;;;;;;23.52;14.57;;;8.00;99.90;;;-144.05;62.48;56940.16;5077017;28;20480;-78
2023/04/18 07:37:53;;;;;;;22.00;13.95;;;8.10;99.90;;;-144.05;62.54;56912.56;5095625;28;20024;-77
2023/04/18 07:40:20;;;;;;;20.08;13.55;;;8.20;99.90;;;-144.05;61.70;56931.66;5096121;28;20035;-78
2023/04/18 07:42:46;;;;;;;21.83;13.38;;;8.30;99.90;;;-144.05;60.34;56914.69;5096026;28;20028;-77
2023/04/18 07:45:11;;;;;;;22.23;13.25;;;8.50;99.90;;;-144.05;59.93;56910.44;5095406;28;20384;-76
2023/04/18 07:47:37;;;;;;;19.92;12.48;;;8.50;99.90;;;-144.05;59.77;56893.44;5096368;28;20063;-78
2023/04/18 07:50:04;;;;;;;19.52;12.52;;;8.60;99.90;;;-144.05;61.20;56908.31;5095960;28;20028;-78
2023/04/18 07:52:30;;;;;;;18.10;12.10;;;8.50;99.90;;;-144.05;61.42;56929.53;5096475;28;20024;-78
2023/04/18 07:54:55;;;;;;;19.90;11.73;;;8.50;99.90;;;-144.05;60.59;56912.56;5095837;28;20383;-77
2023/04/18 07:57:21;;;;;;;19.98;12.15;;;8.50;99.90;;;-144.05;61.63;56910.44;5095823;28;20055;-79
2023/04/18 07:59:47;;;;;;;20.08;11.52;;;8.40;99.90;;;-144.05;60.79;56904.06;5094969;28;20024;-77
2023/04/18 08:02:13;;;;;;;17.45;11.25;;;8.50;99.90;;;-144.05;61.04;56916.81;5077626;28;20526;-77
2023/04/18 08:04:39;;;;;;;17.98;11.30;;;8.50;99.90;;;-144.05;60.40;56918.94;5095410;28;20024;-76
2023/04/18 08:07:05;;;;;;;20.77;11.98;;;8.60;99.90;;;-144.05;60.29;56895.56;5094699;28;20424;-77
2023/04/18 08:09:30;;;;;;;15.90;10.02;;;8.70;99.90;;;-144.05;60.93;56912.56;5094383;28;20048;-78
2023/04/18 08:11:58;;;;;;;18.65;10.93;;;8.70;99.90;;;-144.05;60.65;56923.19;5094208;28;20133;-76
2023/04/18 08:14:24;;;;;;;16.85;10.93;;;8.70;99.90;;;-144.05;59.74;56923.19;5076904;28;20114;-77
2023/04/18 08:16:49;;;;;;;15.95;10.90;;;8.80;99.90;;;-144.05;59.56;56906.19;5095452;28;20063;-78
2023/04/18 08:19:15;;;;;;;16.08;10.70;;;8.90;99.90;;;-144.05;59.97;56887.06;5095240;28;20028;-76
2023/04/18 08:21:41;;;;;;;16.48;10.07;;;9.00;99.90;;;-144.05;59.24;56935.91;5094161;28;20035;-76
2023/04/18 08:24:07;;;;;;;16.45;10.38;;;9.10;99.90;;;-144.05;58.22;56904.06;5077926;28;20392;-78
2023/04/18 08:26:33;;;;;;;16.85;11.55;;;9.10;99.90;;;-144.05;58.17;56925.28;5095538;28;20056;-77
2023/04/18 08:28:59;;;;;;;16.33;11.13;;;9.20;99.90;;;-144.05;57.71;56933.78;5095415;28;20020;-78
2023/04/18 08:31:25;;;;;;;18.63;11.32;;;9.10;99.90;;;-144.05;59.25;56946.53;5096135;28;20437;-78
2023/04/18 08:33:51;;;;;;;15.35;9.20;;;9.00;99.90;;;-144.05;59.70;56912.56;5093354;28;20392;-76
2023/04/18 08:36:16;;;;;;;13.77;9.98;;;8.90;99.90;;;-144.05;59.96;56952.91;5094304;28;20066;-77
2023/04/18 08:38:42;;;;;;;17.27;10.98;;;8.90;99.90;;;-144.05;61.13;56931.66;5075703;28;20059;-77
2023/04/18 08:41:08;;;;;;;22.35;12.15;;;8.80;99.90;;;-144.05;61.51;56914.69;5092458;28;20097;-78
2023/04/18 08:43:36;;;;;;;19.05;11.18;;;8.70;99.90;;;-144.05;61.85;56912.56;5094759;28;20413;-77
2023/04/18 08:46:02;;;;;;;16.95;11.30;;;8.80;99.90;;;-144.05;61.34;56935.91;5094435;28;20032;-79
2023/04/18 08:48:28;;;;;;;19.70;12.13;;;8.80;99.90;;;-144.05;60.53;56904.06;5094067;28;20080;-76
2023/04/18 08:50:58;;;;;;;20.85;11.75;;;8.80;99.90;;;-144.05;60.58;56906.19;5095145;28;20099;-78
2023/04/18 08:53:26;;;;;;;19.25;12.32;;;8.90;99.90;;;-144.05;61.41;56929.53;5093188;28;20047;-79
2023/04/18 08:55:55;;;;;;;20.65;12.95;;;8.80;99.90;;;-144.05;61.67;56912.56;5094257;28;20104;-79
2023/04/18 08:58:25;;;;;;;21.02;12.77;;;8.80;99.90;;;-144.05;61.84;56904.06;5076834;28;20062;-77
2023/04/18 09:00:53;;;;;;;21.50;12.80;;;8.80;99.90;;;-144.05;63.52;56908.31;5095012;28;20039;-77
2023/04/18 09:03:41;;;;;;;20.38;11.88;;;8.70;99.90;;;-144.05;62.72;56927.41;5095165;28;20028;-76
2023/04/18 09:06:17;;;;;;;18.85;12.77;;;8.70;99.90;;;-144.05;62.52;56895.56;5093893;28;20063;-77
2023/04/18 09:08:57;;;;;;;19.17;12.35;;;8.80;99.90;;;-144.05;61.91;56912.56;5095060;28;20067;-77
2023/04/18 09:11:30;;;;;;;22.58;12.82;;;8.90;99.90;;;-144.05;60.80;56895.56;5095217;28;20032;-79
2023/04/18 09:13:57;;;;;;;22.85;13.10;;;9.00;99.90;;;-144.05;61.47;56908.31;5095097;28;20440;-78
2023/04/18 09:16:26;;;;;;;20.80;11.65;;;9.00;99.90;;;-144.05;61.09;56908.31;5095391;28;20431;-77
2023/04/18 09:19:18;;;;;;;20.23;12.73;;;9.00;99.90;;;-144.05;61.51;56906.19;5092879;28;20425;-79
2023/04/18 09:21:47;;;;;;;19.92;11.75;;;9.00;99.90;;;-144.05;61.66;56929.53;5093643;28;20042;-78
2023/04/18 09:24:22;;;;;;;22.15;13.23;;;9.00;99.90;;;-144.05;61.92;56921.06;5094555;28;20054;-77
2023/04/18 09:26:50;;;;;;;22.35;12.60;;;9.00;99.90;;;-144.05;61.43;56897.69;5094824;28;20066;-78
2023/04/18 09:29:17;;;;;;;18.77;12.13;;;9.00;99.90;;;-144.05;61.47;56916.81;5095382;28;20092;-77
2023/04/18 09:32:00;;;;;;;18.65;12.43;;;9.10;99.90;;;-144.05;61.99;56899.81;5094676;28;20035;-79
2023/04/18 09:34:28;;;;;;;23.50;12.27;;;9.10;99.90;;;-144.05;60.48;56893.44;5076012;28;20039;-76
2023/04/18 09:37:13;;;;;;;20.27;12.77;;;9.30;99.90;;;-144.05;60.46;56904.06;5094686;28;20024;-78
2023/04/18 09:39:43;;;;;;;18.90;12.02;;;9.40;99.90;;;-144.05;59.43;56895.56;5093986;28;20028;-79
2023/04/18 09:42:09;;;;;;;18.77;12.70;;;9.50;99.90;;;-144.05;59.37;56921.06;5094444;28;20031;-79
2023/04/18 09:44:37;;;;;;;18.40;11.75;;;9.70;99.90;;;-144.05;59.00;56935.91;5076038;28;20028;-77
2023/04/18 09:47:08;;;;;;;19.95;12.02;;;9.80;99.90;;;-144.05;58.80;56912.56;5094034;28;20043;-77
2023/04/18 09:49:34;;;;;;;21.10;12.82;;;9.80;99.90;;;-144.05;59.31;56887.06;5093371;28;20028;-75
2023/04/18 09:52:06;;;;;;;21.35;12.45;;;9.80;99.90;;;-144.05;59.84;56874.31;5093912;28;20460;-78
2023/04/18 09:54:37;;;;;;;19.45;12.30;;;9.80;99.90;;;-144.05;59.56;56904.06;5094189;28;20080;-76
2023/04/18 09:57:10;;;;;;;21.25;12.52;;;9.70;99.90;;;-144.05;59.82;56931.66;5095107;28;20092;-78
2023/04/18 09:59:57;;;;;;;21.88;12.80;;;9.80;99.90;;;-144.05;60.23;56918.94;5094291;28;20036;-77
2023/04/18 10:02:31;;;;;;;18.98;11.95;;;9.70;99.90;;;-144.05;59.12;56918.94;5094109;28;20029;-78
2023/04/18 10:04:59;;;;;;;21.40;12.80;;;9.80;99.90;;;-144.05;58.73;56880.69;5075771;28;20024;-78